createdAt,value
2022-10-09T00:01:32.643Z,41.41
2022-10-09T00:04:01.551Z,41.04
2022-10-09T00:06:34.013Z,41.28
2022-10-09T00:09:04.606Z,41.24
2022-10-09T00:11:35.059Z,41.14
2022-10-09T00:14:04.783Z,41.33
2022-10-09T00:16:34.663Z,41.21
2022-10-09T00:19:03.196Z,41.44
2022-10-09T00:21:34.567Z,41.21
2022-10-09T00:24:05.294Z,41.22
2022-10-09T00:26:34.487Z,41.80
2022-10-09T00:29:02.840Z,41.84
2022-10-09T00:31:31.389Z,41.93
2022-10-09T00:34:01.117Z,41.87
2022-10-09T00:36:30.357Z,41.85
2022-10-09T00:38:59.053Z,41.70
2022-10-09T00:41:31.156Z,42.08
2022-10-09T00:44:01.650Z,42.06
2022-10-09T00:46:46.648Z,42.12
2022-10-09T00:49:22.711Z,41.95
2022-10-09T00:51:52.827Z,41.85
2022-10-09T00:54:26.422Z,41.69
2022-10-09T00:56:55.733Z,41.68
2022-10-09T00:59:24.690Z,41.59
2022-10-09T01:01:53.865Z,41.59
2022-10-09T01:04:23.734Z,41.37
2022-10-09T01:07:11.965Z,41.05
2022-10-09T01:09:48.649Z,41.12
2022-10-09T01:12:30.467Z,41.24
2022-10-09T01:15:11.086Z,41.44
2022-10-09T01:17:45.298Z,41.51
2022-10-09T01:20:43.920Z,40.80
2022-10-09T01:23:54.106Z,40.40
2022-10-09T01:26:47.778Z,39.62
2022-10-09T01:29:19.262Z,39.72
2022-10-09T01:31:51.914Z,39.30
2022-10-09T01:34:22.172Z,39.08
2022-10-09T01:36:51.753Z,39.21
2022-10-09T01:39:23.786Z,39.03
2022-10-09T01:41:54.707Z,39.18
2022-10-09T01:44:26.455Z,38.94
2022-10-09T01:46:55.197Z,39.27
2022-10-09T01:49:43.146Z,39.33
2022-10-09T01:52:30.073Z,39.14
2022-10-09T01:55:37.408Z,39.24
2022-10-09T01:58:17.176Z,39.29
2022-10-09T02:00:49.734Z,39.22
2022-10-09T02:03:19.167Z,39.29
2022-10-09T02:05:52.844Z,39.35
2022-10-09T02:08:23.377Z,39.34
2022-10-09T02:10:56.999Z,39.56
2022-10-09T02:13:26.974Z,39.57
2022-10-09T02:16:01.616Z,39.61
2022-10-09T02:18:38.461Z,39.76
2022-10-09T02:21:13.087Z,39.88
2022-10-09T02:23:42.960Z,40.03
2022-10-09T02:26:12.926Z,39.96
2022-10-09T02:28:46.012Z,39.97
2022-10-09T02:31:24.219Z,40.28
2022-10-09T02:33:57.745Z,40.21
2022-10-09T02:36:26.920Z,40.16
2022-10-09T02:38:56.899Z,40.20
2022-10-09T02:41:26.124Z,40.27
2022-10-09T02:43:56.539Z,40.12
2022-10-09T02:46:25.872Z,40.17
2022-10-09T02:48:54.457Z,40.29
2022-10-09T02:51:22.878Z,40.24
2022-10-09T02:53:53.999Z,40.36
2022-10-09T02:56:22.669Z,40.38
2022-10-09T02:58:51.278Z,40.53
2022-10-09T03:01:21.623Z,40.61
2022-10-09T03:03:50.094Z,40.69
2022-10-09T03:06:20.801Z,40.88
2022-10-09T03:08:51.759Z,40.93
2022-10-09T03:11:22.002Z,40.97
2022-10-09T03:13:51.007Z,40.81
2022-10-09T03:16:23.863Z,40.99
2022-10-09T03:18:53.792Z,41.10
2022-10-09T03:21:24.797Z,41.18
2022-10-09T03:23:54.171Z,41.35
2022-10-09T03:26:25.964Z,41.55
2022-10-09T03:28:55.962Z,41.54
2022-10-09T03:31:50.776Z,41.77
2022-10-09T03:34:16.436Z,41.80
2022-10-09T03:36:44.787Z,41.78
2022-10-09T03:39:13.260Z,41.92
2022-10-09T03:41:41.679Z,42.09
2022-10-09T03:44:10.117Z,41.95
2022-10-09T03:46:39.879Z,42.10
2022-10-09T03:49:08.907Z,42.18
2022-10-09T03:51:37.325Z,42.33
2022-10-09T03:54:06.524Z,42.38
2022-10-09T03:56:35.220Z,42.37
2022-10-09T03:59:05.635Z,42.49
2022-10-09T04:01:34.245Z,42.47
2022-10-09T04:04:04.270Z,42.64
2022-10-09T04:06:32.619Z,43.02
2022-10-09T04:09:01.304Z,42.87
2022-10-09T04:11:29.660Z,43.06
2022-10-09T04:13:58.021Z,43.26
2022-10-09T04:16:26.570Z,43.26
2022-10-09T04:18:55.053Z,43.23
2022-10-09T04:21:24.783Z,43.60
2022-10-09T04:23:53.440Z,43.58
2022-10-09T04:26:21.851Z,43.58
2022-10-09T04:28:50.321Z,43.63
2022-10-09T04:31:18.768Z,43.47
2022-10-09T04:33:47.119Z,43.72
2022-10-09T04:36:15.473Z,43.67
2022-10-09T04:38:45.179Z,43.61
2022-10-09T04:41:14.041Z,43.58
2022-10-09T04:43:42.397Z,43.45
2022-10-09T04:46:14.308Z,43.68
2022-10-09T04:48:44.550Z,43.69
2022-10-09T04:51:14.071Z,43.52
2022-10-09T04:53:44.317Z,43.73
2022-10-09T04:56:18.109Z,43.89
2022-10-09T04:58:48.643Z,43.80
2022-10-09T05:01:20.027Z,44.07
2022-10-09T05:03:48.693Z,44.07
2022-10-09T05:06:18.621Z,43.83
2022-10-09T05:08:48.920Z,43.89
2022-10-09T05:11:22.052Z,43.93
2022-10-09T05:13:52.491Z,43.79
2022-10-09T05:16:24.452Z,43.99
2022-10-09T05:18:55.422Z,43.80
2022-10-09T05:21:24.632Z,43.86
2022-10-09T05:23:55.509Z,43.73
2022-10-09T05:26:26.451Z,43.95
2022-10-09T05:28:54.892Z,43.82
2022-10-09T05:31:25.219Z,43.98
2022-10-09T05:33:54.676Z,44.20
2022-10-09T05:36:23.250Z,44.16
2022-10-09T05:38:53.012Z,44.20
2022-10-09T05:41:21.411Z,44.12
2022-10-09T05:43:51.166Z,43.95
2022-10-09T05:46:23.479Z,44.13
2022-10-09T05:48:55.653Z,44.08
2022-10-09T05:51:26.804Z,44.21
2022-10-09T05:53:57.769Z,44.20
2022-10-09T05:56:29.223Z,43.98
2022-10-09T05:58:59.478Z,44.10
2022-10-09T06:01:31.135Z,44.08
2022-10-09T06:04:01.156Z,44.15
2022-10-09T06:06:31.909Z,44.01
2022-10-09T06:09:01.806Z,44.08
2022-10-09T06:11:32.987Z,44.00
2022-10-09T06:14:03.772Z,44.07
2022-10-09T06:16:34.331Z,43.97
2022-10-09T06:19:03.493Z,43.99
2022-10-09T06:21:32.106Z,43.83
2022-10-09T06:24:03.928Z,44.00
2022-10-09T06:26:32.693Z,43.86
2022-10-09T06:29:03.340Z,43.59
2022-10-09T06:31:33.868Z,43.54
2022-10-09T06:34:04.826Z,43.43
2022-10-09T06:36:36.153Z,43.25
2022-10-09T06:39:08.445Z,43.30
2022-10-09T06:41:36.982Z,42.98
2022-10-09T06:44:10.823Z,42.79
2022-10-09T06:46:43.605Z,42.82
2022-10-09T06:49:12.699Z,42.58
2022-10-09T06:51:41.398Z,42.37
2022-10-09T06:54:16.611Z,42.40
2022-10-09T06:56:45.590Z,42.21
2022-10-09T06:59:14.350Z,41.94
2022-10-09T07:01:42.775Z,42.04
2022-10-09T07:04:13.407Z,41.94
2022-10-09T07:06:45.161Z,41.88
2022-10-09T07:09:16.719Z,41.69
2022-10-09T07:11:49.322Z,41.53
2022-10-09T07:14:18.054Z,41.48
2022-10-09T07:16:49.776Z,41.43
2022-10-09T07:19:19.143Z,41.29
2022-10-09T07:21:50.799Z,40.85
2022-10-09T07:24:21.340Z,40.83
2022-10-09T07:26:50.336Z,40.68
2022-10-09T07:29:20.431Z,40.52
2022-10-09T07:31:49.909Z,40.33
2022-10-09T07:34:18.361Z,40.10
2022-10-09T07:36:46.748Z,39.70
2022-10-09T07:39:15.177Z,39.62
2022-10-09T07:41:44.931Z,39.50
2022-10-09T07:44:13.322Z,39.37
2022-10-09T07:46:41.746Z,39.27
2022-10-09T07:49:10.197Z,38.98
2022-10-09T07:51:38.604Z,39.25
2022-10-09T07:54:07.117Z,39.20
2022-10-09T07:56:38.101Z,39.06
2022-10-09T07:59:12.529Z,38.94
2022-10-09T08:01:41.957Z,38.93
2022-10-09T08:04:11.537Z,38.90
2022-10-09T08:06:40.111Z,38.59
2022-10-09T08:09:09.820Z,38.54
2022-10-09T08:11:40.807Z,38.53
2022-10-09T08:14:18.188Z,38.74
2022-10-09T08:16:48.215Z,38.58
2022-10-09T08:19:16.817Z,38.80
2022-10-09T08:21:45.249Z,38.37
2022-10-09T08:24:13.667Z,38.25
2022-10-09T08:26:42.934Z,38.21
2022-10-09T08:29:16.115Z,37.66
2022-10-09T08:31:44.507Z,37.79
2022-10-09T08:34:12.958Z,37.88
2022-10-09T08:36:41.535Z,37.84
2022-10-09T08:39:09.942Z,37.89
2022-10-09T08:41:48.560Z,37.24
2022-10-09T08:44:23.358Z,37.53
2022-10-09T08:47:04.869Z,37.75
2022-10-09T08:49:47.056Z,37.86
2022-10-09T08:52:36.684Z,37.58
2022-10-09T08:55:17.980Z,37.52
2022-10-09T08:57:50.757Z,37.70
2022-10-09T09:00:24.223Z,37.61
2022-10-09T09:03:31.406Z,37.34
2022-10-09T09:06:08.932Z,36.92
2022-10-09T09:08:46.658Z,37.19
2022-10-09T09:11:25.059Z,36.76
2022-10-09T09:14:05.909Z,36.88
2022-10-09T09:16:44.779Z,37.07
2022-10-09T09:19:38.509Z,37.15
2022-10-09T09:22:11.507Z,36.78
2022-10-09T09:24:46.436Z,36.71
2022-10-09T09:27:20.163Z,37.00
2022-10-09T09:29:55.699Z,36.74
2022-10-09T09:32:30.003Z,36.82
2022-10-09T09:35:09.394Z,36.91
2022-10-09T09:37:38.098Z,36.91
2022-10-09T09:43:06.734Z,36.69
2022-10-09T09:45:35.189Z,36.18
2022-10-09T09:48:13.269Z,36.07
2022-10-09T09:50:50.603Z,36.04
2022-10-09T09:53:32.947Z,35.58
2022-10-09T09:56:01.945Z,35.66
2022-10-09T09:58:37.650Z,35.28
2022-10-09T10:01:08.206Z,35.13
2022-10-09T10:03:48.601Z,35.31
2022-10-09T10:06:24.609Z,35.02
2022-10-09T10:09:02.189Z,35.27
2022-10-09T10:11:32.301Z,35.52
2022-10-09T10:14:08.112Z,34.91
2022-10-09T10:16:39.683Z,35.02
2022-10-09T10:19:23.623Z,34.85
2022-10-09T10:21:58.358Z,34.45
2022-10-09T10:24:32.792Z,34.22
2022-10-09T10:27:08.524Z,34.32
2022-10-09T10:29:40.315Z,33.65
2022-10-09T10:32:16.997Z,33.53
2022-10-09T10:34:52.821Z,32.77
2022-10-09T10:37:31.905Z,32.72
2022-10-09T10:40:07.477Z,32.80
2022-10-09T10:42:45.252Z,32.57
2022-10-09T10:45:19.351Z,32.16
2022-10-09T10:47:53.410Z,31.86
2022-10-09T10:50:29.259Z,31.60
2022-10-09T10:53:07.817Z,31.29
2022-10-09T10:55:50.120Z,30.97
2022-10-09T10:58:28.256Z,30.95
2022-10-09T11:01:23.960Z,30.49
2022-10-09T11:04:15.958Z,29.59
2022-10-09T11:06:57.587Z,29.46
2022-10-09T11:09:34.444Z,28.82
2022-10-09T11:12:24.684Z,28.81
2022-10-09T11:15:08.940Z,28.30
2022-10-09T11:17:48.094Z,28.46
2022-10-09T11:20:53.248Z,28.99
2022-10-09T11:23:39.981Z,28.37
2022-10-09T11:26:24.549Z,27.58
2022-10-09T11:28:59.506Z,26.85
2022-10-09T11:31:33.977Z,26.34
2022-10-09T11:34:10.361Z,26.08
2022-10-09T11:36:44.076Z,25.94
2022-10-09T11:39:18.279Z,25.66
2022-10-09T11:41:49.348Z,25.48
2022-10-09T11:44:38.529Z,25.96
2022-10-09T11:47:19.280Z,25.76
2022-10-09T11:50:06.153Z,25.09
2022-10-09T11:52:43.930Z,24.93
2022-10-09T11:55:23.871Z,24.75
2022-10-09T11:57:53.950Z,24.13
2022-10-09T12:00:34.767Z,24.41
2022-10-09T12:03:06.360Z,23.47
2022-10-09T12:05:42.335Z,23.48
2022-10-09T12:08:18.355Z,23.31
2022-10-09T12:10:55.069Z,22.68
2022-10-09T12:13:42.912Z,22.87
2022-10-09T12:16:32.965Z,22.61
2022-10-09T12:19:04.413Z,22.60
2022-10-09T12:21:41.045Z,22.42
2022-10-09T12:24:17.110Z,21.99
2022-10-09T12:26:49.043Z,21.81
2022-10-09T12:29:26.924Z,21.42
2022-10-09T12:32:00.711Z,21.46
2022-10-09T12:34:33.802Z,20.71
2022-10-09T12:37:14.927Z,20.49
2022-10-09T12:39:43.953Z,20.82
2022-10-09T12:42:21.882Z,20.11
2022-10-09T12:44:53.788Z,19.83
2022-10-09T12:47:26.816Z,20.22
2022-10-09T12:50:01.931Z,19.87
2022-10-09T12:52:33.127Z,20.59
2022-10-09T12:55:03.745Z,20.62
2022-10-09T12:57:33.730Z,20.63
2022-10-09T13:00:02.327Z,20.75
2022-10-09T13:02:31.858Z,20.80
2022-10-09T13:05:02.922Z,20.46
2022-10-09T13:07:33.079Z,20.06
2022-10-09T13:10:09.432Z,19.23
2022-10-09T13:12:39.426Z,19.18
2022-10-09T13:15:29.954Z,19.31
2022-10-09T13:17:58.732Z,18.81
2022-10-09T13:20:30.512Z,18.41
2022-10-09T13:23:01.908Z,17.90
2022-10-09T13:25:35.765Z,17.32
2022-10-09T13:28:06.254Z,17.43
2022-10-09T13:30:35.166Z,17.19
2022-10-09T13:33:03.571Z,17.56
2022-10-09T13:35:32.051Z,17.63
2022-10-09T13:38:00.411Z,17.89
2022-10-09T13:40:28.922Z,18.33
2022-10-09T13:43:02.581Z,19.11
2022-10-09T13:45:32.392Z,19.49
2022-10-09T13:48:01.575Z,19.86
2022-10-09T13:50:30.001Z,20.46
2022-10-09T13:53:00.230Z,20.60
2022-10-09T13:55:28.786Z,21.32
2022-10-09T13:57:57.247Z,21.61
2022-10-09T14:00:25.623Z,21.61
2022-10-09T14:02:55.621Z,21.92
2022-10-09T14:05:26.616Z,22.06
2022-10-09T14:07:55.254Z,22.61
2022-10-09T14:10:24.175Z,22.81
2022-10-09T14:12:52.717Z,22.67
2022-10-09T14:15:21.085Z,23.07
2022-10-09T14:17:49.837Z,23.31
2022-10-09T14:20:20.087Z,23.94
2022-10-09T14:22:48.773Z,23.79
2022-10-09T14:25:17.526Z,24.10
2022-10-09T14:27:45.911Z,24.13
2022-10-09T14:30:15.098Z,24.50
2022-10-09T14:32:43.532Z,24.66
2022-10-09T14:35:13.227Z,24.45
2022-10-09T14:37:43.019Z,24.86
2022-10-09T14:40:12.737Z,24.94
2022-10-09T14:42:41.720Z,25.21
2022-10-09T14:45:12.179Z,25.11
2022-10-09T14:47:40.528Z,25.14
2022-10-09T14:50:10.523Z,25.38
2022-10-09T14:52:38.960Z,25.46
2022-10-09T14:55:09.946Z,25.55
2022-10-09T14:57:38.337Z,25.35
2022-10-09T15:00:09.287Z,25.67
2022-10-09T15:02:37.706Z,25.61
2022-10-09T15:05:07.366Z,25.59
2022-10-09T15:07:35.758Z,25.39
2022-10-09T15:10:04.416Z,25.39
2022-10-09T15:12:34.204Z,25.58
2022-10-09T15:15:02.568Z,25.72
2022-10-09T15:17:30.943Z,25.59
2022-10-09T15:19:59.335Z,25.74
2022-10-09T15:22:27.738Z,26.02
2022-10-09T15:24:56.174Z,25.96
2022-10-09T15:27:24.539Z,26.07
2022-10-09T15:29:54.303Z,26.23
2022-10-09T15:32:22.690Z,26.15
2022-10-09T15:34:51.164Z,26.46
2022-10-09T15:37:19.581Z,26.17
2022-10-09T15:39:47.957Z,26.28
2022-10-09T15:42:16.330Z,26.49
2022-10-09T15:44:44.699Z,26.74
2022-10-09T15:47:16.756Z,26.60
2022-10-09T15:49:52.561Z,26.97
2022-10-09T15:52:21.994Z,26.89
2022-10-09T15:54:50.424Z,27.17
2022-10-09T15:57:19.026Z,27.03
2022-10-09T15:59:47.402Z,27.24
2022-10-09T16:02:17.171Z,27.47
2022-10-09T16:04:45.632Z,27.23
2022-10-09T16:07:14.037Z,27.24
2022-10-09T16:09:42.464Z,27.81
2022-10-09T16:12:10.857Z,28.00
2022-10-09T16:14:41.045Z,27.88
2022-10-09T16:17:11.449Z,28.09
2022-10-09T16:19:41.442Z,27.89
2022-10-09T16:22:09.909Z,28.09
2022-10-09T16:24:38.313Z,28.23
2022-10-09T16:27:06.709Z,28.59
2022-10-09T16:29:35.192Z,28.40
2022-10-09T16:32:03.675Z,28.57
2022-10-09T16:34:32.095Z,28.53
2022-10-09T16:37:02.376Z,28.69
2022-10-09T16:39:30.792Z,28.87
2022-10-09T16:42:03.759Z,29.07
2022-10-09T16:44:32.433Z,28.93
2022-10-09T16:47:00.827Z,29.32
2022-10-09T16:49:29.210Z,29.29
2022-10-09T16:51:57.637Z,29.30
2022-10-09T16:54:27.429Z,29.32
2022-10-09T16:56:55.826Z,29.57
2022-10-09T16:59:24.452Z,29.67
2022-10-09T17:01:55.319Z,29.80
2022-10-09T17:04:24.212Z,29.68
2022-10-09T17:06:53.743Z,29.95
2022-10-09T17:09:22.710Z,30.04
2022-10-09T17:11:52.863Z,30.02
2022-10-09T17:14:24.230Z,29.88
2022-10-09T17:16:53.027Z,30.06
2022-10-09T17:19:21.917Z,30.08
2022-10-09T17:21:51.123Z,30.11
2022-10-09T17:24:20.520Z,30.22
2022-10-09T17:26:49.351Z,30.03
2022-10-09T17:29:20.090Z,30.15
2022-10-09T17:31:49.383Z,30.30
2022-10-09T17:34:19.044Z,30.40
2022-10-09T17:36:47.915Z,30.41
2022-10-09T17:39:19.935Z,30.44
2022-10-09T17:41:52.086Z,30.50
2022-10-09T17:44:24.435Z,30.67
2022-10-09T17:46:53.587Z,30.56
2022-10-09T17:49:23.230Z,30.66
2022-10-09T17:51:53.181Z,30.84
2022-10-09T17:54:22.440Z,30.79
2022-10-09T17:56:51.226Z,30.91
2022-10-09T17:59:21.456Z,31.10
2022-10-09T18:01:50.489Z,31.12
2022-10-09T18:04:19.948Z,31.22
2022-10-09T18:06:49.032Z,31.08
2022-10-09T18:09:18.176Z,31.33
2022-10-09T18:11:47.835Z,31.26
2022-10-09T18:14:18.093Z,31.31
2022-10-09T18:16:48.889Z,31.48
2022-10-09T18:19:19.906Z,31.43
2022-10-09T18:21:51.057Z,31.38
2022-10-09T18:24:21.023Z,31.47
2022-10-09T18:26:50.265Z,31.62
2022-10-09T18:29:19.600Z,31.81
2022-10-09T18:31:51.932Z,31.83
2022-10-09T18:34:21.482Z,31.86
2022-10-09T18:36:52.343Z,32.08
2022-10-09T18:39:22.298Z,32.21
2022-10-09T18:41:51.748Z,32.68
2022-10-09T18:44:24.638Z,32.99
2022-10-09T18:46:58.618Z,33.14
2022-10-09T18:49:31.889Z,33.32
2022-10-09T18:52:05.167Z,33.58
2022-10-09T18:54:34.752Z,33.72
2022-10-09T18:57:05.252Z,33.94
2022-10-09T18:59:37.390Z,33.89
2022-10-09T19:02:08.203Z,34.03
2022-10-09T19:04:37.889Z,34.22
2022-10-09T19:07:06.610Z,34.30
2022-10-09T19:09:36.718Z,34.39
2022-10-09T19:12:05.680Z,34.41
2022-10-09T19:14:35.653Z,34.39
2022-10-09T19:17:04.671Z,34.59
2022-10-09T19:19:35.208Z,34.64
2022-10-09T19:22:03.642Z,34.59
2022-10-09T19:24:34.303Z,34.46
2022-10-09T19:27:04.915Z,34.55
2022-10-09T19:29:33.597Z,34.39
2022-10-09T19:32:02.162Z,34.52
2022-10-09T19:34:33.310Z,34.42
2022-10-09T19:37:02.968Z,34.32
2022-10-09T19:39:31.843Z,34.33
2022-10-09T19:42:00.597Z,34.33
2022-10-09T19:44:29.211Z,34.21
2022-10-09T19:47:00.262Z,34.29
2022-10-09T19:49:31.678Z,34.34
2022-10-09T19:52:02.626Z,34.50
2022-10-09T19:54:33.153Z,34.43
2022-10-09T19:57:02.100Z,34.35
2022-10-09T19:59:31.321Z,34.33
2022-10-09T20:02:00.297Z,34.42
2022-10-09T20:04:29.187Z,34.54
2022-10-09T20:06:57.914Z,34.55
2022-10-09T20:09:28.036Z,34.67
2022-10-09T20:11:56.548Z,34.56
2022-10-09T20:14:25.332Z,34.71
2022-10-09T20:16:53.864Z,34.84
2022-10-09T20:19:22.271Z,34.82
2022-10-09T20:21:51.270Z,34.91
2022-10-09T20:24:20.873Z,34.86
2022-10-09T20:26:50.782Z,34.93
2022-10-09T20:29:19.215Z,34.94
2022-10-09T20:31:48.874Z,35.08
2022-10-09T20:34:17.883Z,35.13
2022-10-09T20:36:46.321Z,35.29
2022-10-09T20:39:16.346Z,35.25
2022-10-09T20:41:45.324Z,35.17
2022-10-09T20:44:15.670Z,35.32
2022-10-09T20:46:44.125Z,35.26
2022-10-09T20:49:16.930Z,35.53
2022-10-09T20:51:45.346Z,35.60
2022-10-09T20:54:19.099Z,35.59
2022-10-09T20:56:48.302Z,35.51
2022-10-09T20:59:19.225Z,35.60
2022-10-09T21:01:47.773Z,35.60
2022-10-09T21:04:16.292Z,35.85
2022-10-09T21:06:45.001Z,35.75
2022-10-09T21:09:13.581Z,35.90
2022-10-09T21:11:42.730Z,35.94
2022-10-09T21:14:11.676Z,35.87
2022-10-09T21:16:41.452Z,36.04
2022-10-09T21:19:12.685Z,36.11
2022-10-09T21:21:41.114Z,36.17
2022-10-09T21:24:09.471Z,36.26
2022-10-09T21:26:39.343Z,36.28
2022-10-09T21:29:08.277Z,36.30
2022-10-09T21:31:36.688Z,36.52
2022-10-09T21:34:06.825Z,36.59
2022-10-09T21:37:01.825Z,36.78
2022-10-09T21:39:30.812Z,36.74
2022-10-09T21:41:59.389Z,36.94
2022-10-09T21:44:27.818Z,36.96
2022-10-09T21:46:56.231Z,36.90
2022-10-09T21:49:28.273Z,37.05
2022-10-09T21:51:57.049Z,37.11
2022-10-09T21:54:25.683Z,37.17
2022-10-09T21:56:54.084Z,37.10
2022-10-09T21:59:22.442Z,37.39
2022-10-09T22:01:50.874Z,37.43
2022-10-09T22:04:19.264Z,37.55
2022-10-09T22:06:49.061Z,37.52
2022-10-09T22:09:17.549Z,37.37
2022-10-09T22:11:45.921Z,37.58
2022-10-09T22:14:14.791Z,37.69
2022-10-09T22:16:43.210Z,37.61
2022-10-09T22:19:11.722Z,37.89
2022-10-09T22:21:40.103Z,37.95
2022-10-09T22:24:09.929Z,38.06
2022-10-09T22:26:38.370Z,37.93
2022-10-09T22:29:06.690Z,37.95
2022-10-09T22:31:35.107Z,38.18
2022-10-09T22:34:03.886Z,38.09
2022-10-09T22:36:34.985Z,38.28
2022-10-09T22:39:05.924Z,38.35
2022-10-09T22:41:36.598Z,38.27
2022-10-09T22:44:07.886Z,38.32
2022-10-09T22:46:39.189Z,38.38
2022-10-09T22:49:09.378Z,38.22
2022-10-09T22:51:37.778Z,38.43
2022-10-09T22:54:06.904Z,38.20
2022-10-09T22:56:39.592Z,38.53
2022-10-09T22:59:09.678Z,38.43
2022-10-09T23:01:43.728Z,38.46
2022-10-09T23:04:16.052Z,38.39
2022-10-09T23:06:45.903Z,38.35
2022-10-09T23:09:16.208Z,38.41
2022-10-09T23:11:46.115Z,38.42
2022-10-09T23:14:14.900Z,38.49
2022-10-09T23:16:43.754Z,38.43
2022-10-09T23:19:12.344Z,38.47
2022-10-09T23:21:42.982Z,38.36
2022-10-09T23:24:15.369Z,38.47
2022-10-09T23:26:45.529Z,38.39
2022-10-09T23:29:19.977Z,38.57
2022-10-09T23:31:49.322Z,38.66
2022-10-09T23:34:17.776Z,38.50
2022-10-09T23:36:46.153Z,38.53
2022-10-09T23:39:14.887Z,38.73
2022-10-09T23:41:43.326Z,38.56
2022-10-09T23:44:13.141Z,38.58
2022-10-09T23:46:41.973Z,38.53
2022-10-09T23:49:11.241Z,38.71
2022-10-09T23:51:39.904Z,38.63
2022-10-09T23:54:08.297Z,38.83
2022-10-09T23:56:37.787Z,38.73
2022-10-09T23:59:07.356Z,38.84
